createdAt,value
2019-03-26T00:00:22.017Z,12.17
2019-03-26T00:02:52.111Z,12.00
2019-03-26T00:05:22.075Z,11.97
2019-03-26T00:07:52.110Z,12.13
2019-03-26T00:10:22.177Z,15.70
2019-03-26T00:12:52.387Z,13.47
2019-03-26T00:15:22.522Z,10.23
2019-03-26T00:17:52.463Z,16.40
2019-03-26T00:20:22.515Z,14.40
2019-03-26T00:22:52.596Z,12.27
2019-03-26T00:25:22.538Z,15.23
2019-03-26T00:27:52.986Z,20.47
2019-03-26T00:30:22.997Z,24.00
2019-03-26T00:32:53.042Z,23.90
2019-03-26T00:35:23.132Z,21.17
2019-03-26T00:37:53.272Z,18.73
2019-03-26T00:40:23.205Z,26.53
2019-03-26T00:42:53.174Z,15.83
2019-03-26T00:45:23.762Z,18.27
2019-03-26T00:47:53.802Z,20.30
2019-03-26T00:50:23.849Z,18.43
2019-03-26T00:52:53.914Z,17.40
2019-03-26T00:55:23.958Z,16.93
2019-03-26T00:57:54.013Z,16.90
2019-03-26T01:00:39.598Z,19.10
2019-03-26T01:03:09.705Z,20.73
2019-03-26T01:05:39.851Z,20.70
2019-03-26T01:08:10.210Z,20.77
2019-03-26T01:10:40.297Z,14.40
2019-03-26T01:13:10.353Z,18.10
2019-03-26T01:15:40.514Z,21.33
2019-03-26T01:18:12.148Z,17.27
2019-03-26T01:20:42.217Z,24.13
2019-03-26T01:23:12.307Z,23.27
2019-03-26T01:25:42.263Z,25.53
2019-03-26T01:28:12.185Z,23.67
2019-03-26T01:30:42.310Z,25.37
2019-03-26T01:33:12.375Z,30.07
2019-03-26T01:35:42.348Z,27.67
2019-03-26T01:38:12.978Z,24.57
2019-03-26T01:40:43.059Z,32.97
2019-03-26T01:43:13.120Z,29.50
2019-03-26T01:45:43.791Z,24.97
2019-03-26T01:48:13.745Z,28.93
2019-03-26T01:50:44.413Z,29.47
2019-03-26T01:53:14.495Z,31.67
2019-03-26T01:55:44.447Z,25.40
2019-03-26T01:58:14.416Z,24.73
2019-03-26T02:00:44.680Z,26.83
2019-03-26T02:03:14.746Z,31.50
2019-03-26T02:05:46.814Z,25.23
2019-03-26T02:08:16.957Z,23.77
2019-03-26T02:10:47.050Z,27.37
2019-03-26T02:13:17.101Z,22.83
2019-03-26T02:15:47.108Z,23.83
2019-03-26T02:18:17.427Z,24.20
2019-03-26T02:20:47.518Z,21.37
2019-03-26T02:23:17.608Z,19.30
2019-03-26T02:25:47.559Z,22.50
2019-03-26T02:28:17.638Z,21.90
2019-03-26T02:30:49.143Z,17.13
2019-03-26T02:33:19.102Z,21.40
2019-03-26T02:35:49.173Z,19.57
2019-03-26T02:38:19.764Z,19.63
2019-03-26T02:40:50.173Z,21.80
2019-03-26T02:43:23.360Z,18.90
2019-03-26T02:45:53.420Z,22.23
2019-03-26T02:48:23.771Z,25.67
2019-03-26T02:50:54.294Z,21.77
2019-03-26T02:53:24.630Z,21.77
2019-03-26T02:55:54.688Z,19.17
2019-03-26T02:58:24.958Z,18.37
2019-03-26T03:00:54.908Z,13.87
2019-03-26T03:03:24.854Z,17.30
2019-03-26T03:05:54.976Z,18.47
2019-03-26T03:08:24.920Z,18.77
2019-03-26T03:10:54.970Z,19.33
2019-03-26T03:13:25.076Z,20.50
2019-03-26T03:15:55.152Z,19.80
2019-03-26T03:18:25.064Z,21.03
2019-03-26T03:20:55.164Z,18.20
2019-03-26T03:23:25.246Z,16.97
2019-03-26T03:25:55.202Z,19.37
2019-03-26T03:28:25.278Z,18.53
2019-03-26T03:30:55.327Z,18.97
2019-03-26T03:33:25.405Z,20.83
2019-03-26T03:35:55.397Z,24.07
2019-03-26T03:38:25.357Z,26.33
2019-03-26T03:40:55.411Z,22.83
2019-03-26T03:43:25.736Z,21.87
2019-03-26T03:45:55.675Z,22.37
2019-03-26T03:48:25.928Z,28.30
2019-03-26T03:50:57.299Z,24.97
2019-03-26T03:53:27.944Z,25.80
2019-03-26T03:56:01.412Z,28.57
2019-03-26T03:58:33.007Z,34.57
2019-03-26T04:01:02.984Z,31.50
2019-03-26T04:03:32.972Z,34.60
2019-03-26T04:06:09.359Z,32.47
2019-03-26T04:08:34.908Z,36.30
2019-03-26T04:11:04.946Z,34.40
2019-03-26T04:13:34.895Z,40.43
2019-03-26T04:16:04.964Z,34.77
2019-03-26T04:18:35.412Z,36.83
2019-03-26T04:21:05.360Z,32.47
2019-03-26T04:23:35.318Z,30.20
2019-03-26T04:26:05.416Z,32.13
2019-03-26T04:28:35.477Z,38.70
2019-03-26T04:31:05.423Z,34.50
2019-03-26T04:33:35.553Z,31.97
2019-03-26T04:36:07.125Z,32.50
2019-03-26T04:38:37.300Z,34.20
2019-03-26T04:41:07.682Z,28.30
2019-03-26T04:43:37.608Z,31.80
2019-03-26T04:46:08.070Z,33.27
2019-03-26T04:48:38.154Z,23.07
2019-03-26T04:51:08.096Z,28.30
2019-03-26T04:53:38.025Z,26.77
2019-03-26T04:56:08.533Z,33.53
2019-03-26T04:58:39.119Z,88.20
2019-03-26T05:01:09.061Z,110.47
2019-03-26T05:03:39.068Z,100.43
2019-03-26T05:06:09.118Z,35.27
2019-03-26T05:08:40.500Z,23.07
2019-03-26T05:11:11.059Z,25.03
2019-03-26T05:13:41.124Z,27.20
2019-03-26T05:16:11.103Z,26.30
2019-03-26T05:18:41.054Z,25.67
2019-03-26T05:21:11.360Z,24.33
2019-03-26T05:23:41.670Z,25.73
2019-03-26T05:26:11.622Z,30.53
2019-03-26T05:28:41.577Z,26.13
2019-03-26T05:31:11.689Z,27.77
2019-03-26T05:33:42.254Z,23.73
2019-03-26T05:36:12.211Z,24.17
2019-03-26T05:38:42.219Z,25.10
2019-03-26T05:41:13.736Z,30.17
2019-03-26T05:43:43.863Z,27.47
2019-03-26T05:46:13.858Z,19.67
2019-03-26T05:48:43.923Z,28.30
2019-03-26T05:51:14.870Z,21.47
2019-03-26T05:53:45.999Z,20.50
2019-03-26T05:56:18.360Z,21.17
2019-03-26T05:58:48.410Z,21.67
2019-03-26T06:01:18.411Z,26.87
2019-03-26T06:03:48.502Z,24.97
2019-03-26T06:06:18.697Z,16.20
2019-03-26T06:08:49.055Z,23.90
2019-03-26T06:11:19.013Z,23.53
2019-03-26T06:13:48.956Z,22.63
2019-03-26T06:16:19.235Z,30.83
2019-03-26T06:18:49.321Z,19.90
2019-03-26T06:21:19.255Z,21.67
2019-03-26T06:23:49.301Z,19.00
2019-03-26T06:26:19.385Z,19.07
2019-03-26T06:28:49.362Z,21.80
2019-03-26T06:31:19.595Z,19.30
2019-03-26T06:33:49.669Z,18.30
2019-03-26T06:36:19.599Z,18.50
2019-03-26T06:38:49.666Z,14.77
2019-03-26T06:41:19.734Z,18.20
2019-03-26T06:43:49.781Z,18.43
2019-03-26T06:49:01.526Z,18.73
2019-03-26T06:51:31.526Z,16.67
2019-03-26T06:54:03.122Z,18.47
2019-03-26T06:56:36.502Z,16.40
2019-03-26T06:59:06.762Z,15.43
2019-03-26T07:01:37.074Z,18.00
2019-03-26T07:04:07.202Z,23.27
2019-03-26T07:06:37.322Z,20.07
2019-03-26T07:09:08.387Z,26.17
2019-03-26T07:11:38.583Z,21.40
2019-03-26T07:14:08.754Z,16.97
2019-03-26T07:16:38.744Z,24.37
2019-03-26T07:19:08.894Z,23.40
2019-03-26T07:21:49.123Z,22.70
2019-03-26T07:24:10.670Z,16.37
2019-03-26T07:26:40.678Z,19.87
2019-03-26T07:29:10.765Z,16.50
2019-03-26T07:31:40.873Z,19.93
2019-03-26T07:34:11.981Z,23.57
2019-03-26T07:36:41.933Z,21.40
2019-03-26T07:39:12.103Z,17.07
2019-03-26T07:41:42.236Z,17.40
2019-03-26T07:44:12.197Z,25.53
2019-03-26T07:46:42.153Z,22.10
2019-03-26T07:49:12.245Z,21.70
2019-03-26T07:51:42.271Z,19.93
2019-03-26T07:54:12.355Z,20.60
2019-03-26T07:56:42.454Z,28.53
2019-03-26T07:59:12.425Z,22.07
2019-03-26T08:01:42.383Z,27.03
2019-03-26T08:04:12.788Z,20.43
2019-03-26T08:06:42.849Z,22.67
2019-03-26T08:09:12.811Z,18.73
2019-03-26T08:11:42.863Z,17.53
2019-03-26T08:14:12.974Z,17.73
2019-03-26T08:16:43.031Z,24.77
2019-03-26T08:19:14.017Z,25.30
2019-03-26T08:21:44.031Z,20.07
2019-03-26T08:24:14.112Z,18.17
2019-03-26T08:26:44.217Z,19.60
2019-03-26T08:29:14.171Z,23.67
2019-03-26T08:31:44.345Z,18.83
2019-03-26T08:34:14.339Z,19.50
2019-03-26T08:36:44.312Z,19.67
2019-03-26T08:39:14.382Z,19.20
2019-03-26T08:41:44.510Z,19.13
2019-03-26T08:44:14.464Z,19.40
2019-03-26T08:46:46.307Z,19.40
2019-03-26T08:49:16.264Z,18.93
2019-03-26T08:51:46.326Z,14.03
2019-03-26T08:54:16.310Z,18.43
2019-03-26T08:56:46.314Z,18.87
2019-03-26T08:59:16.392Z,22.37
2019-03-26T09:01:46.461Z,18.83
2019-03-26T09:04:16.459Z,17.87
2019-03-26T09:06:46.493Z,17.47
2019-03-26T09:09:16.655Z,15.30
2019-03-26T09:11:46.659Z,15.07
2019-03-26T09:14:16.858Z,21.23
2019-03-26T09:16:46.950Z,16.90
2019-03-26T09:19:17.275Z,19.10
2019-03-26T09:21:47.236Z,15.93
2019-03-26T09:24:17.293Z,16.73
2019-03-26T09:26:47.521Z,17.50
2019-03-26T09:29:17.496Z,12.97
2019-03-26T09:31:47.458Z,14.87
2019-03-26T09:34:17.547Z,20.60
2019-03-26T09:36:47.615Z,13.63
2019-03-26T09:39:17.602Z,14.57
2019-03-26T09:41:47.635Z,13.63
2019-03-26T09:44:17.700Z,24.07
2019-03-26T09:46:47.829Z,15.00
2019-03-26T09:49:17.851Z,13.40
2019-03-26T09:51:47.776Z,18.27
2019-03-26T09:54:17.871Z,13.40
2019-03-26T09:56:47.950Z,17.60
2019-03-26T09:59:17.919Z,13.37
2019-03-26T10:01:47.872Z,14.97
2019-03-26T10:04:17.977Z,14.80
2019-03-26T10:06:48.027Z,13.30
2019-03-26T10:09:17.982Z,17.23
2019-03-26T10:11:47.971Z,12.23
2019-03-26T10:14:18.031Z,14.13
2019-03-26T10:16:48.091Z,12.77
2019-03-26T10:19:18.078Z,19.13
2019-03-26T10:21:48.038Z,13.23
2019-03-26T10:24:18.157Z,19.43
2019-03-26T10:27:00.523Z,15.13
2019-03-26T10:29:31.284Z,15.07
2019-03-26T10:32:01.502Z,13.57
2019-03-26T10:34:32.642Z,13.13
2019-03-26T10:37:03.750Z,13.20
2019-03-26T10:39:33.865Z,14.83
2019-03-26T10:42:06.908Z,14.93
2019-03-26T10:44:35.639Z,12.43
2019-03-26T10:47:05.734Z,15.17
2019-03-26T10:49:35.842Z,15.13
2019-03-26T10:52:06.176Z,15.07
2019-03-26T10:54:36.202Z,13.77
2019-03-26T10:57:06.178Z,14.37
2019-03-26T10:59:36.431Z,11.30
2019-03-26T11:02:06.660Z,14.97
2019-03-26T11:04:36.608Z,13.17
2019-03-26T11:07:06.751Z,14.17
2019-03-26T11:09:36.813Z,13.03
2019-03-26T11:12:06.752Z,14.43
2019-03-26T11:14:36.845Z,12.23
2019-03-26T11:17:06.907Z,14.80
2019-03-26T11:19:36.832Z,14.83
2019-03-26T11:22:06.836Z,11.27
2019-03-26T11:24:36.886Z,15.37
2019-03-26T11:27:06.968Z,20.67
2019-03-26T11:29:36.932Z,15.23
2019-03-26T11:32:06.986Z,18.03
2019-03-26T11:34:37.039Z,12.57
2019-03-26T11:37:07.163Z,14.03
2019-03-26T11:39:49.485Z,12.40
2019-03-26T11:42:22.194Z,13.10
2019-03-26T11:44:52.355Z,12.90
2019-03-26T11:47:22.634Z,12.20
2019-03-26T11:49:53.203Z,12.30
2019-03-26T11:52:23.620Z,12.70
2019-03-26T11:54:53.728Z,12.40
2019-03-26T11:57:23.675Z,11.47
2019-03-26T11:59:53.798Z,11.43
2019-03-26T12:02:24.054Z,16.90
2019-03-26T12:04:54.036Z,11.90
2019-03-26T12:07:24.165Z,14.13
2019-03-26T12:09:54.249Z,14.50
2019-03-26T12:12:24.940Z,12.80
2019-03-26T12:14:54.934Z,11.33
2019-03-26T12:17:24.882Z,13.03
2019-03-26T12:19:54.937Z,16.00
2019-03-26T12:22:25.038Z,17.17
2019-03-26T12:24:54.995Z,48.87
2019-03-26T12:27:24.944Z,18.07
2019-03-26T12:29:55.047Z,17.03
2019-03-26T12:32:25.011Z,16.67
2019-03-26T12:34:55.488Z,19.57
2019-03-26T12:37:25.617Z,18.63
2019-03-26T12:39:59.631Z,23.23
2019-03-26T12:42:27.228Z,14.43
2019-03-26T12:44:57.325Z,15.70
2019-03-26T12:47:27.412Z,28.47
2019-03-26T12:49:57.361Z,17.00
2019-03-26T12:52:27.406Z,19.57
2019-03-26T12:54:57.451Z,16.27
2019-03-26T12:57:27.569Z,21.63
2019-03-26T12:59:57.567Z,19.43
2019-03-26T13:02:27.602Z,30.67
2019-03-26T13:04:57.597Z,24.60
2019-03-26T13:07:27.902Z,15.17
2019-03-26T13:09:58.327Z,15.30
2019-03-26T13:12:28.363Z,27.63
2019-03-26T13:14:59.501Z,26.10
2019-03-26T13:17:29.759Z,19.73
2019-03-26T13:19:59.816Z,20.00
2019-03-26T13:22:30.098Z,26.30
2019-03-26T13:25:00.259Z,20.73
2019-03-26T13:27:30.300Z,16.33
2019-03-26T13:30:00.403Z,13.53
2019-03-26T13:32:30.476Z,12.20
2019-03-26T13:35:00.461Z,13.77
2019-03-26T13:37:30.460Z,15.97
2019-03-26T13:40:00.547Z,16.87
2019-03-26T13:42:30.595Z,15.20
2019-03-26T13:45:00.575Z,18.23
2019-03-26T13:47:30.518Z,16.43
2019-03-26T13:50:00.587Z,24.97
2019-03-26T13:52:30.606Z,23.23
2019-03-26T13:55:00.697Z,16.70
2019-03-26T13:57:30.759Z,19.37
2019-03-26T14:00:00.899Z,25.77
2019-03-26T14:02:30.855Z,21.70
2019-03-26T14:05:00.955Z,22.30
2019-03-26T14:07:31.054Z,23.37
2019-03-26T14:10:01.010Z,14.37
2019-03-26T14:12:30.991Z,19.20
2019-03-26T14:15:01.130Z,16.93
2019-03-26T14:17:31.285Z,15.87
2019-03-26T14:20:01.224Z,15.63
2019-03-26T14:22:31.544Z,15.97
2019-03-26T14:25:01.614Z,11.93
2019-03-26T14:27:31.676Z,15.90
2019-03-26T14:30:03.039Z,13.20
2019-03-26T14:32:33.101Z,12.23
2019-03-26T14:35:03.070Z,13.20
2019-03-26T14:37:33.224Z,17.37
2019-03-26T14:40:04.743Z,21.83
2019-03-26T14:42:34.838Z,20.27
2019-03-26T14:45:05.444Z,21.80
2019-03-26T14:47:35.382Z,23.33
2019-03-26T14:50:06.591Z,19.40
2019-03-26T14:52:36.836Z,19.20
2019-03-26T14:55:07.300Z,21.13
2019-03-26T14:57:37.273Z,20.17
2019-03-26T15:00:08.094Z,21.37
2019-03-26T15:02:38.154Z,42.03
2019-03-26T15:05:09.657Z,28.27
2019-03-26T15:07:39.665Z,21.40
2019-03-26T15:10:09.929Z,21.37
2019-03-26T15:12:40.135Z,18.47
2019-03-26T15:15:10.335Z,20.73
2019-03-26T15:17:40.266Z,20.97
2019-03-26T15:20:10.612Z,16.50
2019-03-26T15:22:40.881Z,16.40
2019-03-26T15:25:11.102Z,18.93
2019-03-26T15:27:41.059Z,25.53
2019-03-26T15:30:12.607Z,15.50
2019-03-26T15:32:42.721Z,14.30
2019-03-26T15:35:12.889Z,16.07
2019-03-26T15:37:42.877Z,26.73
2019-03-26T15:40:13.227Z,16.63
2019-03-26T15:42:43.285Z,19.00
2019-03-26T15:45:14.949Z,20.37
2019-03-26T15:47:44.871Z,25.37
2019-03-26T15:50:19.037Z,17.70
2019-03-26T15:52:49.038Z,27.23
2019-03-26T15:55:19.151Z,22.10
2019-03-26T15:57:49.654Z,18.63
2019-03-26T16:00:22.526Z,19.00
2019-03-26T16:02:52.483Z,24.67
2019-03-26T16:05:22.575Z,22.23
2019-03-26T16:07:52.773Z,18.03
2019-03-26T16:10:22.756Z,19.00
2019-03-26T16:12:52.770Z,21.60
2019-03-26T16:15:22.844Z,20.67
2019-03-26T16:17:53.022Z,24.40
2019-03-26T16:20:23.143Z,34.37
2019-03-26T16:22:53.113Z,24.23
2019-03-26T16:25:23.196Z,26.23
2019-03-26T16:27:53.330Z,24.27
2019-03-26T16:30:23.283Z,24.00
2019-03-26T16:32:53.351Z,23.33
2019-03-26T16:35:23.360Z,47.50
2019-03-26T16:37:53.368Z,22.43
2019-03-26T16:40:23.437Z,19.53
2019-03-26T16:42:53.729Z,24.23
2019-03-26T16:45:24.631Z,24.27
2019-03-26T16:47:54.669Z,22.10
2019-03-26T16:50:24.854Z,18.60
2019-03-26T16:52:54.927Z,22.10
2019-03-26T16:55:24.906Z,20.37
2019-03-26T16:57:54.936Z,25.77
2019-03-26T17:00:33.009Z,19.30
2019-03-26T17:03:03.332Z,22.77
2019-03-26T17:05:33.346Z,22.10
2019-03-26T17:08:03.344Z,21.37
2019-03-26T17:10:33.707Z,20.07
2019-03-26T17:13:03.721Z,18.43
2019-03-26T17:15:34.102Z,15.50
2019-03-26T17:18:04.333Z,19.07
2019-03-26T17:20:34.373Z,15.60
2019-03-26T17:23:04.504Z,16.47
2019-03-26T17:25:34.849Z,20.70
2019-03-26T17:28:05.173Z,15.13
2019-03-26T17:30:35.283Z,15.43
2019-03-26T17:33:05.711Z,19.43
2019-03-26T17:35:36.466Z,21.33
2019-03-26T17:38:07.180Z,22.43
2019-03-26T17:40:37.345Z,19.00
2019-03-26T17:43:07.322Z,17.47
2019-03-26T17:45:37.378Z,18.03
2019-03-26T17:48:07.473Z,16.30
2019-03-26T17:50:37.502Z,20.70
2019-03-26T17:53:07.628Z,15.43
2019-03-26T17:55:37.688Z,13.77
2019-03-26T17:58:07.835Z,16.57
2019-03-26T18:00:46.888Z,12.70
2019-03-26T18:03:26.312Z,19.37
2019-03-26T18:05:48.734Z,20.17
2019-03-26T18:08:18.760Z,15.97
2019-03-26T18:10:48.861Z,14.60
2019-03-26T18:13:19.024Z,18.00
2019-03-26T18:15:49.254Z,15.00
2019-03-26T18:18:19.413Z,18.90
2019-03-26T18:20:49.467Z,17.80
2019-03-26T18:23:23.124Z,16.70
2019-03-26T18:25:53.230Z,15.43
2019-03-26T18:28:23.293Z,20.27
2019-03-26T18:30:56.533Z,18.53
2019-03-26T18:33:26.497Z,23.00
2019-03-26T18:35:59.325Z,23.17
2019-03-26T18:38:48.189Z,18.50
2019-03-26T18:41:21.561Z,18.03
2019-03-26T18:43:51.512Z,35.47
2019-03-26T18:46:21.636Z,22.23
2019-03-26T18:48:51.773Z,22.47
2019-03-26T18:52:14.689Z,21.73
2019-03-26T18:54:44.768Z,20.23
2019-03-26T18:57:14.871Z,20.43
2019-03-26T18:59:45.400Z,20.93
2019-03-26T19:02:15.800Z,18.50
2019-03-26T19:04:45.769Z,19.33
2019-03-26T19:07:15.900Z,21.83
2019-03-26T19:09:46.182Z,21.13
2019-03-26T19:12:16.132Z,20.30
2019-03-26T19:14:47.315Z,20.17
2019-03-26T19:17:17.754Z,18.73
2019-03-26T19:19:48.399Z,19.17
2019-03-26T19:22:18.511Z,17.27
2019-03-26T19:24:48.698Z,16.07
2019-03-26T19:30:25.267Z,16.73
2019-03-26T19:32:57.651Z,18.43
2019-03-26T19:35:29.212Z,15.40
2019-03-26T19:37:59.133Z,15.53
2019-03-26T19:40:29.102Z,17.60
2019-03-26T19:43:10.181Z,16.00
2019-03-26T19:45:31.066Z,17.20
2019-03-26T19:48:01.644Z,16.30
2019-03-26T19:50:31.635Z,14.83
2019-03-26T19:53:01.684Z,17.83
2019-03-26T19:55:31.732Z,16.10
2019-03-26T19:58:01.873Z,19.83
2019-03-26T20:00:32.072Z,23.63
2019-03-26T20:03:02.086Z,24.13
2019-03-26T20:05:35.329Z,20.73
2019-03-26T20:08:04.570Z,18.30
2019-03-26T20:10:34.671Z,17.07
2019-03-26T20:13:04.741Z,18.40
2019-03-26T20:15:34.776Z,16.50
2019-03-26T20:18:04.641Z,13.50
2019-03-26T20:20:34.780Z,11.00
2019-03-26T20:23:04.737Z,14.27
2019-03-26T20:25:34.731Z,14.20
2019-03-26T20:28:04.901Z,12.10
2019-03-26T20:30:40.007Z,13.07
2019-03-26T20:33:10.534Z,13.00
2019-03-26T20:35:40.506Z,13.50
2019-03-26T20:38:10.562Z,14.60
2019-03-26T20:40:40.826Z,15.07
2019-03-26T20:43:10.783Z,13.33
2019-03-26T20:45:40.781Z,17.40
2019-03-26T20:48:11.179Z,15.23
2019-03-26T20:50:41.251Z,18.90
2019-03-26T20:53:13.187Z,19.13
2019-03-26T20:55:53.724Z,13.43
2019-03-26T20:58:15.026Z,17.23
2019-03-26T21:00:46.269Z,13.27
2019-03-26T21:03:16.244Z,16.63
2019-03-26T21:05:46.201Z,13.17
2019-03-26T21:08:16.252Z,13.60
2019-03-26T21:10:46.472Z,11.97
2019-03-26T21:13:16.423Z,15.73
2019-03-26T21:15:56.599Z,14.57
2019-03-26T21:18:18.197Z,19.70
2019-03-26T21:20:48.133Z,16.67
2019-03-26T21:23:18.180Z,17.87
2019-03-26T21:25:48.264Z,15.27
2019-03-26T21:28:18.597Z,19.77
2019-03-26T21:30:48.544Z,18.50
2019-03-26T21:33:18.795Z,13.97
2019-03-26T21:35:48.837Z,19.23
2019-03-26T21:38:18.776Z,14.97
2019-03-26T21:40:48.811Z,14.17
2019-03-26T21:43:18.867Z,21.27
2019-03-26T21:45:48.920Z,16.87
2019-03-26T21:48:19.272Z,14.37
2019-03-26T21:50:49.556Z,12.30
2019-03-26T21:53:20.195Z,18.73
2019-03-26T21:55:50.198Z,15.23
2019-03-26T21:58:20.715Z,12.40
2019-03-26T22:00:50.770Z,10.80
2019-03-26T22:03:20.746Z,15.33
2019-03-26T22:05:50.695Z,17.20
2019-03-26T22:08:20.743Z,13.40
2019-03-26T22:10:51.006Z,16.47
2019-03-26T22:13:20.947Z,12.77
2019-03-26T22:15:50.884Z,14.97
2019-03-26T22:18:20.977Z,14.40
2019-03-26T22:20:51.032Z,18.67
2019-03-26T22:23:23.022Z,16.43
2019-03-26T22:25:53.055Z,17.87
2019-03-26T22:28:24.583Z,11.83
2019-03-26T22:30:54.634Z,13.83
2019-03-26T22:33:24.968Z,12.50
2019-03-26T22:35:56.124Z,13.67
2019-03-26T22:38:26.227Z,13.87
2019-03-26T22:40:56.210Z,13.10
2019-03-26T22:43:26.241Z,15.17
2019-03-26T22:45:56.284Z,15.20
2019-03-26T22:48:26.272Z,16.90
2019-03-26T22:50:56.209Z,14.93
2019-03-26T22:53:26.250Z,16.43
2019-03-26T22:55:56.345Z,17.77
2019-03-26T22:58:26.282Z,14.53
2019-03-26T23:00:56.432Z,14.43
2019-03-26T23:03:26.418Z,12.50
2019-03-26T23:05:56.458Z,12.13
2019-03-26T23:08:26.394Z,11.57
2019-03-26T23:10:56.386Z,11.33
2019-03-26T23:13:26.423Z,12.40
2019-03-26T23:15:56.340Z,15.07
2019-03-26T23:18:26.469Z,10.17
2019-03-26T23:20:56.536Z,11.23
2019-03-26T23:23:26.497Z,12.77
2019-03-26T23:25:56.487Z,13.07
2019-03-26T23:28:26.533Z,11.87
2019-03-26T23:30:56.582Z,15.40
2019-03-26T23:33:26.596Z,11.40
2019-03-26T23:35:56.353Z,15.50
2019-03-26T23:38:26.399Z,14.20
2019-03-26T23:40:56.485Z,10.97
2019-03-26T23:48:37.839Z,12.93
2019-03-26T23:51:07.840Z,13.77
2019-03-26T23:53:37.979Z,11.03
2019-03-26T23:56:08.243Z,11.37
2019-03-26T23:58:38.221Z,14.27
